Time;durP1;ratioP1;P1;durP2;ratioP2;P2;SDS_P1;SDS_P2;PMS_P1;PMS_P2;Temp;Humidity;BMP_temperature;BMP_pressure;BME280_temperature;BME280_humidity;BME280_pressure;Samples;Min_cycle;Max_cycle;Signal;HPM_P1;HPM_P2
2021/04/30 00:00:28;;;;;;;;;;;;;;;-142.75;62.90;77777.16;5047127;28;20386;-77
2021/04/30 00:02:54;;;;;;;;;;;;;;;-142.75;63.05;77785.03;5038809;28;19967;-77
2021/04/30 00:05:19;;;;;;;;;;;;;;;-142.75;63.30;77798.81;5045338;28;19917;-80
2021/04/30 00:07:44;;;;;;;;;;;;;;;-142.75;63.14;77804.72;5048992;28;20394;-80
2021/04/30 00:10:09;;;;;;;;;;;;;;;-142.75;63.33;77796.84;5041693;28;20042;-81
2021/04/30 00:12:35;;;;;;;;;;;;;;;-142.75;63.60;77804.72;5023743;28;19929;-77
2021/04/30 00:15:01;;;;;;;;;;;;;;;-142.75;63.52;77806.69;5043247;28;19921;-82
2021/04/30 00:17:26;;;;;;;;;;;;;;;-142.75;63.42;77806.69;5020040;28;20348;-80
2021/04/30 00:19:51;;;;;;;;;;;;;;;-142.75;63.70;77806.69;5022202;28;19917;-78
2021/04/30 00:22:16;;;;;;;;;;;;;;;-142.75;63.80;77810.63;5042271;28;19917;-81
2021/04/30 00:24:41;;;;;;;;;;;;;;;-142.75;63.70;77814.56;5037620;28;19920;-78
2021/04/30 00:27:07;;;;;;;;;;;;;;;-142.75;63.51;77810.63;5043437;28;19923;-78
2021/04/30 00:29:32;;;;;;;;;;;;;;;-142.75;63.59;77812.59;5041725;28;19967;-78
2021/04/30 00:31:57;;;;;;;;;;;;;;;-142.75;63.97;77818.50;5036156;28;19917;-80
2021/04/30 00:34:23;;;;;;;;;;;;;;;-142.75;63.78;77814.56;5047266;28;19956;-77
2021/04/30 00:36:48;;;;;;;;;;;;;;;-142.75;63.58;77810.63;5042285;28;19924;-78
2021/04/30 00:39:13;;;;;;;;;;;;;;;-142.75;64.04;77806.69;5024445;28;19917;-78
2021/04/30 00:41:41;;;;;;;;;;;;;;;-142.75;63.49;77792.91;5042509;28;19924;-78
2021/04/30 00:44:07;;;;;;;;;;;;;;;-142.75;63.79;77788.97;5027147;28;19917;-79
2021/04/30 00:46:32;;;;;;;;;;;;;;;-142.75;63.67;77787.00;5039550;28;19923;-78
2021/04/30 00:48:57;;;;;;;;;;;;;;;-142.75;63.82;77790.94;5044959;28;19970;-80
2021/04/30 00:51:23;;;;;;;;;;;;;;;-142.75;63.68;77787.00;5045506;28;20310;-79
2021/04/30 00:53:48;;;;;;;;;;;;;;;-142.75;63.75;77779.13;5041257;28;19983;-79
2021/04/30 00:56:13;;;;;;;;;;;;;;;-142.75;63.08;77777.16;5025752;28;19924;-78
2021/04/30 00:58:39;;;;;;;;;;;;;;;-142.75;63.22;77767.31;5040107;28;19970;-79
2021/04/30 01:01:04;;;;;;;;;;;;;;;-142.75;63.49;77773.22;5037488;28;20011;-79
2021/04/30 01:03:29;;;;;;;;;;;;;;;-142.75;63.36;77781.09;5042073;28;19967;-81
2021/04/30 01:05:55;;;;;;;;;;;;;;;-142.75;63.51;77775.19;5041609;28;19924;-79
2021/04/30 01:08:20;;;;;;;;;;;;;;;-142.75;63.16;77777.16;5041341;28;19956;-79
2021/04/30 01:10:45;;;;;;;;;;;;;;;-142.75;63.27;77783.06;5038455;28;19916;-80
2021/04/30 01:13:14;;;;;;;;;;;;;;;-142.75;63.45;77781.09;5042055;28;20016;-78
2021/04/30 01:15:39;;;;;;;;;;;;;;;-142.75;63.42;77779.13;5044320;28;19925;-78
2021/04/30 01:18:04;;;;;;;;;;;;;;;-142.75;63.43;77771.25;5042040;28;19924;-79
2021/04/30 01:20:30;;;;;;;;;;;;;;;-142.75;63.44;77775.19;5039452;28;21645;-81
2021/04/30 01:22:55;;;;;;;;;;;;;;;-142.75;63.04;77773.22;5043187;28;19974;-78
2021/04/30 01:25:24;;;;;;;;;;;;;;;-142.75;63.36;77765.34;5020842;28;19929;-82
2021/04/30 01:27:50;;;;;;;;;;;;;;;-142.75;63.60;77781.09;5043474;28;19958;-77
2021/04/30 01:30:26;;;;;;;;;;;;;;;-142.75;63.09;77767.31;5018976;28;19955;-78
2021/04/30 01:32:52;;;;;;;;;;;;;;;-142.75;63.54;77787.00;5037482;28;19968;-80
2021/04/30 01:35:21;;;;;;;;;;;;;;;-142.75;63.80;77777.16;5022331;28;19917;-78
2021/04/30 01:37:48;;;;;;;;;;;;;;;-142.75;63.90;77777.16;5022403;28;19916;-77
2021/04/30 01:40:14;;;;;;;;;;;;;;;-142.75;63.78;77771.25;5018427;28;20028;-81
2021/04/30 01:42:54;;;;;;;;;;;;;;;-142.75;63.61;77767.31;5041489;28;19924;-83
2021/04/30 01:45:19;;;;;;;;;;;;;;;-142.75;63.76;77765.34;5034462;28;19923;-76
2021/04/30 01:47:45;;;;;;;;;;;;;;;-142.75;63.42;77761.41;5042350;28;19925;-77
2021/04/30 01:50:12;;;;;;;;;;;;;;;-142.75;63.67;77767.31;5045951;28;20381;-78
2021/04/30 01:52:37;;;;;;;;;;;;;;;-142.75;63.37;77761.41;5049892;28;19956;-79
2021/04/30 01:55:02;;;;;;;;;;;;;;;-142.75;63.56;77767.31;5047614;28;20356;-80
2021/04/30 01:57:27;;;;;;;;;;;;;;;-142.75;63.76;77773.22;5037233;28;19917;-77
2021/04/30 01:59:52;;;;;;;;;;;;;;;-142.75;63.87;77767.31;5043243;28;19917;-80
2021/04/30 02:02:18;;;;;;;;;;;;;;;-142.75;63.73;77773.22;5042553;28;19921;-79
2021/04/30 02:04:43;;;;;;;;;;;;;;;-142.75;63.87;77773.22;5047581;28;19916;-78
2021/04/30 02:07:08;;;;;;;;;;;;;;;-142.75;63.73;77773.22;5046724;28;19921;-77
2021/04/30 02:09:33;;;;;;;;;;;;;;;-142.75;63.75;77783.06;5042038;28;19917;-77
2021/04/30 02:12:00;;;;;;;;;;;;;;;-142.75;63.81;77769.28;5039849;28;20035;-77
2021/04/30 02:14:25;;;;;;;;;;;;;;;-142.75;63.94;77769.28;5046900;28;19941;-78
2021/04/30 02:16:50;;;;;;;;;;;;;;;-142.75;63.60;77771.25;5045283;28;19952;-79
2021/04/30 02:19:15;;;;;;;;;;;;;;;-142.75;63.93;77771.25;5045121;28;19917;-78
2021/04/30 02:21:40;;;;;;;;;;;;;;;-142.75;64.21;77777.16;5043594;28;20295;-78
2021/04/30 02:24:06;;;;;;;;;;;;;;;-142.75;64.10;77771.25;5044994;28;19924;-78
2021/04/30 02:26:31;;;;;;;;;;;;;;;-142.75;63.70;77767.31;5045758;28;20066;-78
2021/04/30 02:28:56;;;;;;;;;;;;;;;-142.75;63.98;77765.34;5040424;28;19917;-78
2021/04/30 02:31:21;;;;;;;;;;;;;;;-142.75;64.10;77761.41;5030440;28;20401;-79
2021/04/30 02:33:46;;;;;;;;;;;;;;;-142.75;64.12;77763.38;5042778;28;19921;-78
2021/04/30 02:36:12;;;;;;;;;;;;;;;-142.75;63.63;77761.41;5046297;28;19940;-79
2021/04/30 02:38:37;;;;;;;;;;;;;;;-142.75;63.83;77755.50;5041837;28;19917;-77
2021/04/30 02:41:03;;;;;;;;;;;;;;;-142.75;64.04;77753.53;5021868;28;19921;-77
2021/04/30 02:43:28;;;;;;;;;;;;;;;-142.75;64.18;77767.31;5043648;28;19921;-77
2021/04/30 02:45:54;;;;;;;;;;;;;;;-142.75;63.82;77755.50;5042942;28;20323;-77
2021/04/30 02:48:27;;;;;;;;;;;;;;;-142.75;64.34;77767.31;5024449;28;20545;-77
2021/04/30 02:50:52;;;;;;;;;;;;;;;-142.75;64.76;77788.97;5044372;28;19963;-81
2021/04/30 02:53:17;;;;;;;;;;;;;;;-142.75;64.99;77790.94;5038776;28;19920;-77
2021/04/30 02:55:42;;;;;;;;;;;;;;;-142.75;64.88;77785.03;5037886;28;19943;-77
2021/04/30 02:58:09;;;;;;;;;;;;;;;-142.75;64.97;77788.97;5042905;28;20003;-79
2021/04/30 03:00:34;;;;;;;;;;;;;;;-142.75;64.91;77775.19;5042740;28;19917;-80
2021/04/30 03:03:00;;;;;;;;;;;;;;;-142.75;65.04;77785.03;5040386;28;20547;-79
2021/04/30 03:05:25;;;;;;;;;;;;;;;-142.75;65.04;77775.19;5040794;28;19917;-78
2021/04/30 03:07:51;;;;;;;;;;;;;;;-142.75;64.45;77747.63;5040145;28;19924;-80
2021/04/30 03:10:16;;;;;;;;;;;;;;;-142.75;64.73;77759.44;5054655;23;19963;-77
2021/04/30 03:12:42;;;;;;;;;;;;;;;-142.75;64.42;77747.63;5053280;28;19924;-76
2021/04/30 03:15:08;;;;;;;;;;;;;;;-142.75;64.26;77739.75;5055678;28;19917;-76
2021/04/30 03:17:33;;;;;;;;;;;;;;;-142.75;64.14;77743.69;5052225;28;19924;-77
2021/04/30 03:19:58;;;;;;;;;;;;;;;-142.75;64.38;77743.69;5060921;28;20015;-77
2021/04/30 03:22:24;;;;;;;;;;;;;;;-142.75;64.34;77753.53;5051095;28;19917;-77
2021/04/30 03:24:49;;;;;;;;;;;;;;;-142.75;64.66;77751.56;5051912;28;20019;-78
2021/04/30 03:27:14;;;;;;;;;;;;;;;-142.75;64.67;77747.63;5061621;28;19917;-79
2021/04/30 03:29:39;;;;;;;;;;;;;;;-142.75;64.54;77751.56;5060012;28;19924;-78
2021/04/30 03:32:07;;;;;;;;;;;;;;;-142.75;64.75;77741.72;5064199;28;20378;-79
2021/04/30 03:34:33;;;;;;;;;;;;;;;-142.75;64.54;77737.78;5053190;28;19925;-79
2021/04/30 03:36:58;;;;;;;;;;;;;;;-142.75;64.43;77737.78;5050049;28;19924;-76
2021/04/30 03:39:23;;;;;;;;;;;;;;;-142.75;64.52;77743.69;5051120;28;19917;-76
2021/04/30 03:41:48;;;;;;;;;;;;;;;-142.75;64.33;77737.78;5052849;28;19954;-78
2021/04/30 03:44:13;;;;;;;;;;;;;;;-142.75;64.57;77743.69;5058296;28;20346;-81
2021/04/30 03:46:38;;;;;;;;;;;;;;;-142.75;64.61;77747.63;5050256;28;19943;-77
2021/04/30 03:49:05;;;;;;;;;;;;;;;-142.75;64.95;77749.59;5052123;28;20285;-77
2021/04/30 03:51:30;;;;;;;;;;;;;;;-142.75;64.65;77743.69;5058499;28;19959;-77
2021/04/30 03:53:55;;;;;;;;;;;;;;;-142.75;64.71;77743.69;5052417;28;19955;-76
2021/04/30 03:56:21;;;;;;;;;;;;;;;-142.75;64.85;77735.81;5061362;28;19955;-76
2021/04/30 03:58:46;;;;;;;;;;;;;;;-142.75;65.25;77735.81;5051534;28;20423;-76
2021/04/30 04:01:11;;;;;;;;;;;;;;;-142.75;65.28;77743.69;5060140;28;19920;-76
2021/04/30 04:03:36;;;;;;;;;;;;;;;-142.75;64.94;77731.88;5052033;28;19978;-76
2021/04/30 04:06:02;;;;;;;;;;;;;;;-142.75;64.94;77735.81;5066286;28;20282;-76
2021/04/30 04:08:29;;;;;;;;;;;;;;;-142.75;64.95;77729.88;5050140;28;20294;-77
2021/04/30 04:10:54;;;;;;;;;;;;;;;-142.75;65.07;77737.78;5055983;28;20003;-77
2021/04/30 04:13:21;;;;;;;;;;;;;;;-142.75;65.09;77731.88;5050729;28;20430;-76
2021/04/30 04:15:47;;;;;;;;;;;;;;;-142.75;65.12;77731.88;5062197;28;19939;-78
2021/04/30 04:18:12;;;;;;;;;;;;;;;-142.75;65.18;77731.88;5048723;28;19920;-78
2021/04/30 04:20:37;;;;;;;;;;;;;;;-142.75;65.22;77735.81;5048380;28;19924;-77
2021/04/30 04:23:03;;;;;;;;;;;;;;;-142.75;65.28;77727.94;5049615;28;19917;-78
2021/04/30 04:25:28;;;;;;;;;;;;;;;-142.75;65.09;77733.84;5050445;28;19917;-77
2021/04/30 04:27:53;;;;;;;;;;;;;;;-142.75;65.05;77729.88;5061957;28;19951;-78
2021/04/30 04:30:19;;;;;;;;;;;;;;;-142.75;64.91;77735.81;5058050;28;19959;-76
2021/04/30 04:32:44;;;;;;;;;;;;;;;-142.75;65.27;77739.75;5048179;28;19921;-77
2021/04/30 04:35:09;;;;;;;;;;;;;;;-142.75;65.03;77745.66;5050639;28;20374;-77
2021/04/30 04:37:35;;;;;;;;;;;;;;;-142.75;65.08;77743.69;5055597;28;19920;-77
2021/04/30 04:40:00;;;;;;;;;;;;;;;-142.75;65.05;77739.75;5049065;28;19922;-78
2021/04/30 04:42:25;;;;;;;;;;;;;;;-142.75;65.01;77733.84;5057756;28;19916;-79
2021/04/30 04:44:50;;;;;;;;;;;;;;;-142.75;65.27;77737.78;5049843;28;19920;-78
2021/04/30 04:47:16;;;;;;;;;;;;;;;-142.75;65.17;77747.63;5057646;28;19956;-78
2021/04/30 04:49:41;;;;;;;;;;;;;;;-142.75;65.14;77739.75;5047845;28;19921;-77
2021/04/30 04:52:06;;;;;;;;;;;;;;;-142.75;65.37;77737.78;5057957;28;20394;-78
2021/04/30 04:54:31;;;;;;;;;;;;;;;-142.75;65.28;77731.88;5062427;28;19921;-78
2021/04/30 04:56:57;;;;;;;;;;;;;;;-142.75;64.92;77735.81;5048176;28;20306;-78
2021/04/30 04:59:22;;;;;;;;;;;;;;;-142.75;65.20;77733.84;5047898;28;20325;-77
2021/04/30 05:01:47;;;;;;;;;;;;;;;-142.75;64.81;77723.97;5047786;28;20345;-77
2021/04/30 05:04:12;;;;;;;;;;;;;;;-142.75;64.99;77723.97;5059271;28;20317;-77
2021/04/30 05:06:37;;;;;;;;;;;;;;;-142.75;65.03;77723.97;5048946;28;20018;-78
2021/04/30 05:09:03;;;;;;;;;;;;;;;-142.75;64.96;77720.03;5059775;28;19944;-76
2021/04/30 05:11:28;;;;;;;;;;;;;;;-142.75;64.84;77722.00;5056461;28;20000;-78
2021/04/30 05:13:59;;;;;;;;;;;;;;;-142.75;65.06;77716.09;5058524;28;20290;-77
2021/04/30 05:16:24;;;;;;;;;;;;;;;-142.75;64.81;77716.09;5047316;28;20319;-75
2021/04/30 05:18:50;;;;;;;;;;;;;;;-142.75;64.88;77723.97;5050146;28;20015;-76
2021/04/30 05:21:17;;;;;;;;;;;;;;;-142.75;65.18;77723.97;5056284;28;19916;-76
2021/04/30 05:23:43;;;;;;;;;;;;;;;-142.75;64.96;77716.09;5046980;28;20004;-77
2021/04/30 05:26:09;;;;;;;;;;;;;;;-142.75;64.68;77712.16;5056681;28;19923;-77
2021/04/30 05:28:35;;;;;;;;;;;;;;;-142.75;64.91;77712.16;5063681;28;19917;-77
2021/04/30 05:31:01;;;;;;;;;;;;;;;-142.75;64.98;77714.13;5061942;28;20305;-78
2021/04/30 05:33:26;;;;;;;;;;;;;;;-142.75;64.91;77716.09;5048041;28;19921;-76
2021/04/30 05:35:51;;;;;;;;;;;;;;;-142.75;64.97;77718.06;5060628;28;20361;-78
2021/04/30 05:38:17;;;;;;;;;;;;;;;-142.75;65.32;77723.97;5050078;28;20290;-77
2021/04/30 05:40:42;;;;;;;;;;;;;;;-142.75;64.89;77716.09;5053832;28;19962;-77
2021/04/30 05:43:07;;;;;;;;;;;;;;;-142.75;64.56;77706.25;5058362;28;20409;-78
2021/04/30 05:45:32;;;;;;;;;;;;;;;-142.75;64.54;77704.28;5054821;28;20483;-77
2021/04/30 05:47:58;;;;;;;;;;;;;;;-142.75;64.54;77710.19;5047923;28;20408;-77
2021/04/30 05:50:23;;;;;;;;;;;;;;;-142.75;64.98;77723.97;5046578;28;19921;-77
2021/04/30 05:52:48;;;;;;;;;;;;;;;-142.75;65.19;77729.88;5056878;28;20350;-77
2021/04/30 05:55:13;;;;;;;;;;;;;;;-142.75;65.39;77729.88;5045254;28;19924;-77
2021/04/30 05:57:39;;;;;;;;;;;;;;;-142.75;64.86;77712.16;5048789;28;19917;-77
2021/04/30 06:00:11;;;;;;;;;;;;;;;-142.75;64.56;77702.31;5044959;28;19920;-77
2021/04/30 06:02:37;;;;;;;;;;;;;;;-142.75;64.42;77694.44;5054854;28;19932;-77
2021/04/30 06:05:03;;;;;;;;;;;;;;;-142.75;64.41;77698.38;5058947;28;19920;-77
2021/04/30 06:07:29;;;;;;;;;;;;;;;-142.75;64.84;77700.34;5047857;28;19952;-77
2021/04/30 06:09:54;;;;;;;;;;;;;;;-142.75;64.72;77700.34;5049792;28;19949;-77
2021/04/30 06:12:19;;;;;;;;;;;;;;;-142.75;64.32;77692.47;5048874;28;19916;-81
2021/04/30 06:14:44;;;;;;;;;;;;;;;-142.75;64.15;77684.59;5050228;28;19974;-76
2021/04/30 06:17:10;;;;;;;;;;;;;;;-142.75;64.44;77676.72;5049158;28;19924;-79
2021/04/30 06:19:35;;;;;;;;;;;;;;;-142.75;64.59;77676.72;5059920;28;19944;-77
2021/04/30 06:22:00;;;;;;;;;;;;;;;-142.75;64.39;77655.06;5057627;28;20332;-77
2021/04/30 06:24:25;;;;;;;;;;;;;;;-142.75;64.04;77668.84;5046648;28;19917;-78
2021/04/30 06:26:50;;;;;;;;;;;;;;;-142.75;64.41;77653.09;5048780;28;20518;-77
2021/04/30 06:29:16;;;;;;;;;;;;;;;-142.75;64.38;77660.97;5060731;28;19970;-78
2021/04/30 06:31:41;;;;;;;;;;;;;;;-142.75;64.05;77664.91;5055931;28;19956;-78
2021/04/30 06:34:07;;;;;;;;;;;;;;;-142.75;64.40;77662.94;5047487;28;20294;-78
2021/04/30 06:36:35;;;;;;;;;;;;;;;-142.75;64.15;77664.91;5054138;28;19982;-78
2021/04/30 06:39:00;;;;;;;;;;;;;;;-142.75;64.35;77680.66;5053021;28;19917;-77
2021/04/30 06:41:26;;;;;;;;;;;;;;;-142.75;64.57;77676.72;5051695;28;19924;-79
2021/04/30 06:43:51;;;;;;;;;;;;;;;-142.75;64.21;77680.66;5052100;28;19927;-76
2021/04/30 06:46:17;;;;;;;;;;;;;;;-142.75;64.23;77684.59;5060523;28;19917;-78
2021/04/30 06:48:42;;;;;;;;;;;;;;;-142.75;64.47;77692.47;5052735;28;19923;-78
2021/04/30 06:51:07;;;;;;;;;;;;;;;-142.75;64.64;77674.75;5049337;28;20023;-77
2021/04/30 06:53:33;;;;;;;;;;;;;;;-142.75;64.41;77672.78;5064393;28;19924;-77
2021/04/30 06:55:58;;;;;;;;;;;;;;;-142.75;64.33;77676.72;5050407;28;19917;-76
2021/04/30 06:58:23;;;;;;;;;;;;;;;-142.75;64.40;77684.59;5064057;28;19923;-78
2021/04/30 07:00:49;;;;;;;;;;;;;;;-142.75;64.33;77680.66;5056212;28;19939;-77
2021/04/30 07:03:14;;;;;;;;;;;;;;;-142.75;64.13;77682.63;5063199;28;19917;-78
2021/04/30 07:05:39;;;;;;;;;;;;;;;-142.75;64.69;77686.56;5052988;28;20379;-77
2021/04/30 07:08:04;;;;;;;;;;;;;;;-142.75;65.00;77690.50;5064899;28;19924;-79
2021/04/30 07:10:30;;;;;;;;;;;;;;;-142.75;64.78;77688.53;5055564;28;19923;-81
2021/04/30 07:12:55;;;;;;;;;;;;;;;-142.75;64.44;77692.47;5051359;28;19921;-79
2021/04/30 07:15:21;;;;;;;;;;;;;;;-142.75;64.69;77678.69;5052978;28;19932;-78
2021/04/30 07:17:46;;;;;;;;;;;;;;;-142.75;64.13;77672.78;5052393;28;21606;-78
2021/04/30 07:20:12;;;;;;;;;;;;;;;-142.75;63.83;77680.66;5050366;28;20351;-78
2021/04/30 07:22:37;;;;;;;;;;;;;;;-142.75;64.01;77684.59;5051007;28;19927;-77
2021/04/30 07:25:03;;;;;;;;;;;;;;;-142.75;64.27;77696.41;5053030;28;19925;-80
2021/04/30 07:27:28;;;;;;;;;;;;;;;-142.75;64.29;77700.34;5056255;28;19951;-79
2021/04/30 07:29:53;;;;;;;;;;;;;;;-142.75;64.41;77704.28;5053215;28;19951;-78
2021/04/30 07:32:18;;;;;;;;;;;;;;;-142.75;63.92;77694.44;5065862;28;19924;-79
2021/04/30 07:34:43;;;;;;;;;;;;;;;-142.75;63.85;77694.44;5063964;28;20467;-78
2021/04/30 07:37:09;;;;;;;;;;;;;;;-142.75;63.35;77672.78;5052032;28;19931;-76
2021/04/30 07:39:34;;;;;;;;;;;;;;;-142.75;63.53;77664.91;5047374;28;19932;-79
2021/04/30 07:42:00;;;;;;;;;;;;;;;-142.75;63.36;77662.94;5058790;28;20018;-78
2021/04/30 07:44:25;;;;;;;;;;;;;;;-142.75;63.38;77647.19;5051830;28;19917;-79
2021/04/30 07:46:50;;;;;;;;;;;;;;;-142.75;63.23;77637.34;5048802;28;19975;-78
2021/04/30 07:49:16;;;;;;;;;;;;;;;-142.75;62.83;77639.31;5050492;28;20030;-79
2021/04/30 07:51:41;;;;;;;;;;;;;;;-142.75;63.25;77637.34;5051623;28;19935;-78
2021/04/30 07:54:06;;;;;;;;;;;;;;;-142.75;63.36;77613.72;5051548;28;19932;-80
2021/04/30 07:56:32;;;;;;;;;;;;;;;-142.75;62.54;77607.81;5051349;28;19959;-79
2021/04/30 07:58:57;;;;;;;;;;;;;;;-142.75;62.34;77568.44;5051370;28;20050;-80
2021/04/30 08:01:22;;;;;;;;;;;;;;;-142.75;61.80;77505.44;5051952;28;19916;-78
2021/04/30 08:03:47;;;;;;;;;;;;;;;-142.75;60.78;77471.97;5054435;28;19942;-79
2021/04/30 08:06:12;;;;;;;;;;;;;;;-142.75;60.36;77420.75;5054521;28;19960;-82
2021/04/30 08:08:39;;;;;;;;;;;;;;;-142.75;59.10;77420.75;5052616;28;19917;-84
2021/04/30 08:11:04;;;;;;;;;;;;;;;-142.75;59.39;77416.81;5053497;28;19916;-81
2021/04/30 08:13:29;;;;;;;;;;;;;;;-142.75;58.66;77420.75;5066148;28;20433;-80
2021/04/30 08:15:55;;;;;;;;;;;;;;;-142.75;58.60;77420.75;5056117;28;19923;-82
2021/04/30 08:18:23;;;;;;;;;;;;;;;-142.75;57.75;77426.66;5059536;28;19987;-79
2021/04/30 08:20:48;;;;;;;;;;;;;;;-142.75;58.88;77436.50;5064337;28;20263;-79
2021/04/30 08:23:14;;;;;;;;;;;;;;;-142.75;59.06;77466.03;5051759;28;19917;-79
2021/04/30 08:25:39;;;;;;;;;;;;;;;-142.75;58.45;77479.84;5050187;28;20394;-77
2021/04/30 08:28:05;;;;;;;;;;;;;;;-142.75;59.21;77501.50;5052130;28;19942;-79
2021/04/30 08:30:30;;;;;;;;;;;;;;;-142.75;59.63;77523.16;5050513;28;20298;-79
2021/04/30 08:32:55;;;;;;;;;;;;;;;-142.75;59.30;77533.00;5048131;28;20364;-78
2021/04/30 08:35:22;;;;;;;;;;;;;;;-142.75;59.57;77554.66;5051413;28;19916;-80
2021/04/30 08:37:47;;;;;;;;;;;;;;;-142.75;60.15;77544.81;5049734;28;20043;-81
2021/04/30 08:40:12;;;;;;;;;;;;;;;-142.75;59.97;77558.59;5050711;28;20003;-79
2021/04/30 08:42:39;;;;;;;;;;;;;;;-142.75;59.63;77554.66;5052659;28;19935;-79
2021/04/30 08:45:07;;;;;;;;;;;;;;;-142.75;59.60;77542.84;5052767;28;19917;-79
2021/04/30 08:47:36;;;;;;;;;;;;;;;-142.75;59.59;77540.88;5056218;28;20387;-80
2021/04/30 08:50:02;;;;;;;;;;;;;;;-142.75;59.88;77531.03;5051588;28;19988;-78
2021/04/30 08:52:28;;;;;;;;;;;;;;;-142.75;59.51;77525.13;5049555;28;19960;-77
2021/04/30 08:54:56;;;;;;;;;;;;;;;-142.75;60.02;77533.00;5052439;28;19956;-80
2021/04/30 08:57:25;;;;;;;;;;;;;;;-142.75;60.24;77534.97;5056032;28;20420;-79
2021/04/30 08:59:55;;;;;;;;;;;;;;;-142.75;59.69;77519.22;5056474;28;19930;-78
2021/04/30 09:02:20;;;;;;;;;;;;;;;-142.75;59.25;77527.09;5060359;28;20014;-79
2021/04/30 09:04:46;;;;;;;;;;;;;;;-142.75;59.34;77501.50;5057146;28;20385;-80
2021/04/30 09:07:20;;;;;;;;;;;;;;;-142.75;58.52;77505.44;5065771;28;19924;-79
2021/04/30 09:10:05;;;;;;;;;;;;;;;-142.75;58.74;77485.75;5066840;28;19939;-79
2021/04/30 09:12:31;;;;;;;;;;;;;;;-142.75;58.34;77479.84;5054885;28;20405;-80
2021/04/30 09:14:57;;;;;;;;;;;;;;;-142.75;58.30;77493.63;5056104;28;19972;-80
2021/04/30 09:17:23;;;;;;;;;;;;;;;-142.75;58.67;77497.56;5052394;28;19921;-78
2021/04/30 09:19:54;;;;;;;;;;;;;;;-142.75;58.08;77499.53;5051572;28;19958;-78
2021/04/30 09:22:19;;;;;;;;;;;;;;;-142.75;58.57;77519.22;5052597;28;19916;-78
2021/04/30 09:24:49;;;;;;;;;;;;;;;-142.75;58.54;77517.25;5062168;28;19962;-78
2021/04/30 09:27:26;;;;;;;;;;;;;;;-142.75;58.82;77515.28;5067620;28;20297;-77
2021/04/30 09:29:51;;;;;;;;;;;;;;;-142.75;58.98;77515.28;5050483;28;20018;-79
2021/04/30 09:32:17;;;;;;;;;;;;;;;-142.75;58.90;77519.22;5050256;28;20014;-76
2021/04/30 09:34:43;;;;;;;;;;;;;;;-142.75;58.70;77517.25;5052742;28;20370;-79
2021/04/30 09:37:12;;;;;;;;;;;;;;;-142.75;58.33;77519.22;5057035;28;19917;-80
2021/04/30 09:39:50;;;;;;;;;;;;;;;-142.75;58.48;77519.22;5058246;28;19966;-81
2021/04/30 09:42:17;;;;;;;;;;;;;;;-142.75;58.20;77507.41;5059172;28;20002;-82
2021/04/30 09:44:43;;;;;;;;;;;;;;;-142.75;57.21;77475.91;5059401;28;20279;-81
2021/04/30 09:47:16;;;;;;;;;;;;;;;-142.75;57.78;77468.03;5057404;28;19926;-80
2021/04/30 09:49:42;;;;;;;;;;;;;;;-142.75;57.83;77466.03;5057728;28;20412;-80
2021/04/30 09:52:08;;;;;;;;;;;;;;;-142.75;57.24;77468.03;5053055;28;19916;-80
2021/04/30 09:54:34;;;;;;;;;;;;;;;-142.75;57.37;77448.34;5055386;28;19924;-79
2021/04/30 09:57:19;;;;;;;;;;;;;;;-142.75;57.13;77436.50;5057107;28;20307;-81
2021/04/30 10:00:06;;;;;;;;;;;;;;;-142.75;56.59;77416.81;5066406;28;19928;-80
2021/04/30 10:02:32;;;;;;;;;;;;;;;-142.75;56.82;77385.31;5034766;28;19916;-81
2021/04/30 10:05:19;;;;;;;;;;;;;;;-142.75;56.10;77365.63;5070212;28;19917;-80
2021/04/30 10:07:44;;;;;;;;;;;;;;;-142.75;56.34;77373.50;5071190;28;19932;-78
2021/04/30 10:10:14;;;;;;;;;;;;;;;-142.75;56.65;77318.38;5064564;28;19926;-78
2021/04/30 10:12:41;;;;;;;;;;;;;;;-142.75;54.73;77375.47;5055867;28;19921;-79
2021/04/30 10:15:07;;;;;;;;;;;;;;;-142.75;56.37;77479.84;5055219;28;19921;-78
2021/04/30 10:17:33;;;;;;;;;;;;;;;-142.75;57.77;77452.25;5058092;28;19920;-79
2021/04/30 10:19:58;;;;;;;;;;;;;;;-142.75;56.98;77473.94;5058513;28;19916;-81
2021/04/30 10:22:24;;;;;;;;;;;;;;;-142.75;57.69;77446.34;5054175;28;19920;-78
2021/04/30 10:24:51;;;;;;;;;;;;;;;-142.75;56.96;77434.53;5057483;28;19916;-81
2021/04/30 10:27:18;;;;;;;;;;;;;;;-142.75;55.82;77444.38;5059040;28;19916;-77
2021/04/30 10:29:48;;;;;;;;;;;;;;;-142.75;56.68;77475.91;5056039;28;19923;-79
2021/04/30 10:32:15;;;;;;;;;;;;;;;-142.75;57.48;77527.09;5056426;28;19969;-78
2021/04/30 10:34:44;;;;;;;;;;;;;;;-142.75;57.62;77580.25;5072738;28;19920;-77
2021/04/30 10:37:11;;;;;;;;;;;;;;;-142.75;58.76;77586.16;5061215;28;20271;-78
2021/04/30 10:39:36;;;;;;;;;;;;;;;-142.75;58.85;77584.19;5053648;28;19916;-78
2021/04/30 10:42:12;;;;;;;;;;;;;;;-142.75;58.26;77601.91;5053346;28;19927;-79
2021/04/30 10:44:40;;;;;;;;;;;;;;;-142.75;57.78;77590.09;5053013;28;20293;-77
2021/04/30 10:47:08;;;;;;;;;;;;;;;-142.75;58.32;77599.94;5053106;28;20050;-78
2021/04/30 10:49:34;;;;;;;;;;;;;;;-142.75;59.16;77590.09;5064697;28;19923;-78
2021/04/30 10:52:09;;;;;;;;;;;;;;;-142.75;59.20;77560.56;5055124;28;20294;-77
2021/04/30 10:54:36;;;;;;;;;;;;;;;-142.75;59.38;77578.28;5062021;28;19922;-78
2021/04/30 10:57:01;;;;;;;;;;;;;;;-142.75;59.66;77578.28;5057933;28;19968;-77
2021/04/30 10:59:46;;;;;;;;;;;;;;;-142.75;60.16;77601.91;5061129;28;19989;-77
2021/04/30 11:02:17;;;;;;;;;;;;;;;-142.75;61.17;77619.63;5061281;28;20178;-78
2021/04/30 11:05:01;;;;;;;;;;;;;;;-142.75;61.99;77649.16;5053981;28;19920;-77
2021/04/30 11:07:26;;;;;;;;;;;;;;;-142.75;63.04;77708.22;5068311;28;19917;-79
2021/04/30 11:09:52;;;;;;;;;;;;;;;-142.75;64.06;77727.94;5054181;28;19932;-77
2021/04/30 11:12:17;;;;;;;;;;;;;;;-142.75;64.40;77755.50;5054352;28;19963;-79
2021/04/30 11:14:54;;;;;;;;;;;;;;;-142.75;64.91;77771.25;5062431;28;19921;-77
2021/04/30 11:17:39;;;;;;;;;;;;;;;-142.75;65.04;77779.13;5061321;28;19931;-78
2021/04/30 11:20:12;;;;;;;;;;;;;;;-142.75;65.26;77783.06;5054067;28;19920;-78
2021/04/30 11:22:37;;;;;;;;;;;;;;;-142.75;65.50;77790.94;5066057;28;19927;-77
2021/04/30 11:25:03;;;;;;;;;;;;;;;-142.75;65.68;77798.81;5055038;28;19916;-79
2021/04/30 11:27:29;;;;;;;;;;;;;;;-142.75;66.19;77810.63;5055765;28;19955;-76
2021/04/30 11:30:13;;;;;;;;;;;;;;;-142.75;66.54;77814.56;5053630;28;19916;-77
2021/04/30 11:32:41;;;;;;;;;;;;;;;-142.75;65.15;77826.38;5070651;28;20007;-77
2021/04/30 11:35:07;;;;;;;;;;;;;;;-142.75;65.08;77830.31;5053893;28;19928;-76
2021/04/30 11:37:33;;;;;;;;;;;;;;;-142.75;64.87;77838.19;5055354;28;19972;-77
2021/04/30 11:40:00;;;;;;;;;;;;;;;-142.75;65.46;77844.09;5054595;28;19975;-79
2021/04/30 11:42:29;;;;;;;;;;;;;;;-142.75;66.21;77857.88;5054766;28;19992;-78
2021/04/30 11:44:54;;;;;;;;;;;;;;;-142.75;66.45;77850.00;5055716;28;20390;-78
2021/04/30 11:47:26;;;;;;;;;;;;;;;-142.75;66.59;77844.09;5054708;28;19943;-79
2021/04/30 11:49:53;;;;;;;;;;;;;;;-142.75;66.82;77840.16;5078763;22;19984;-79
2021/04/30 11:52:26;;;;;;;;;;;;;;;-142.75;66.19;77832.28;5043051;28;19932;-78
2021/04/30 11:54:59;;;;;;;;;;;;;;;-142.75;66.38;77814.56;5048426;28;19921;-77
2021/04/30 11:57:24;;;;;;;;;;;;;;;-142.75;65.67;77808.66;5047571;28;19917;-78
2021/04/30 11:59:51;;;;;;;;;;;;;;;-142.75;65.57;77802.75;5045135;28;19917;-78
2021/04/30 12:02:17;;;;;;;;;;;;;;;-142.75;65.41;77798.81;5047148;28;20413;-76
2021/04/30 12:04:45;;;;;;;;;;;;;;;-142.75;65.87;77792.91;5043080;28;19917;-78
2021/04/30 12:07:12;;;;;;;;;;;;;;;-142.75;65.81;77783.06;5053879;28;19978;-78
2021/04/30 12:09:37;;;;;;;;;;;;;;;-142.75;65.99;77771.25;5034540;28;19971;-78
2021/04/30 12:12:21;;;;;;;;;;;;;;;-142.75;66.02;77765.34;5023627;28;19928;-78
2021/04/30 12:15:06;;;;;;;;;;;;;;;-142.75;65.56;77779.13;5048204;28;19924;-78
2021/04/30 12:17:36;;;;;;;;;;;;;;;-142.75;65.91;77779.13;5046789;28;19927;-77
2021/04/30 12:20:07;;;;;;;;;;;;;;;-142.75;65.53;77773.22;5044049;28;19916;-79
2021/04/30 12:22:33;;;;;;;;;;;;;;;-142.75;65.40;77767.31;5028571;28;19917;-77
2021/04/30 12:25:16;;;;;;;;;;;;;;;-142.75;64.95;77745.66;5045260;28;19921;-80